sensor_id;sensor_type;location;lat;lon;timestamp;pressure;altitude;pressure_sealevel;temperature;humidity
33191;BME280;19554;42.652;23.364;2023-04-12T00:02:22;93709.13;;;9.48;63.47
33191;BME280;19554;42.652;23.364;2023-04-12T00:04:48;93719.84;;;9.57;63.33
33191;BME280;19554;42.652;23.364;2023-04-12T00:07:25;93694.09;;;9.30;63.78
33191;BME280;19554;42.652;23.364;2023-04-12T00:09:51;93700.84;;;9.27;64.07
33191;BME280;19554;42.652;23.364;2023-04-12T00:12:17;93713.75;;;9.34;64.14
33191;BME280;19554;42.652;23.364;2023-04-12T00:14:44;93717.22;;;9.43;63.80
33191;BME280;19554;42.652;23.364;2023-04-12T00:17:09;93698.53;;;9.34;64.06
33191;BME280;19554;42.652;23.364;2023-04-12T00:19:36;93681.84;;;9.20;64.15
33191;BME280;19554;42.652;23.364;2023-04-12T00:22:08;93706.41;;;9.39;64.17
33191;BME280;19554;42.652;23.364;2023-04-12T00:24:34;93634.59;;;8.89;64.18
33191;BME280;19554;42.652;23.364;2023-04-12T00:26:59;93704.84;;;9.38;63.93
33191;BME280;19554;42.652;23.364;2023-04-12T00:29:26;93703.44;;;9.41;64.06
33191;BME280;19554;42.652;23.364;2023-04-12T00:31:52;93679.44;;;9.18;64.12
33191;BME280;19554;42.652;23.364;2023-04-12T00:34:17;93706.22;;;9.36;64.33
33191;BME280;19554;42.652;23.364;2023-04-12T00:36:42;93702.16;;;9.38;64.18
33191;BME280;19554;42.652;23.364;2023-04-12T00:39:08;93710.47;;;9.37;64.17
33191;BME280;19554;42.652;23.364;2023-04-12T00:41:36;93688.31;;;9.28;64.19
33191;BME280;19554;42.652;23.364;2023-04-12T00:44:01;93703.09;;;9.34;64.21
33191;BME280;19554;42.652;23.364;2023-04-12T00:46:26;93701.50;;;9.33;64.23
33191;BME280;19554;42.652;23.364;2023-04-12T00:48:54;93709.59;;;9.28;64.40
33191;BME280;19554;42.652;23.364;2023-04-12T00:51:21;93701.72;;;9.22;64.55
33191;BME280;19554;42.652;23.364;2023-04-12T00:53:47;93699.56;;;9.24;64.52
33191;BME280;19554;42.652;23.364;2023-04-12T00:56:12;93688.72;;;9.21;64.52
33191;BME280;19554;42.652;23.364;2023-04-12T00:58:38;93691.44;;;9.30;64.30
33191;BME280;19554;42.652;23.364;2023-04-12T01:01:04;93688.78;;;9.30;64.26
33191;BME280;19554;42.652;23.364;2023-04-12T01:03:29;93698.72;;;9.38;64.10
33191;BME280;19554;42.652;23.364;2023-04-12T01:08:45;93690.22;;;9.36;64.25
33191;BME280;19554;42.652;23.364;2023-04-12T01:11:22;93667.59;;;9.24;63.93
33191;BME280;19554;42.652;23.364;2023-04-12T01:17:01;93690.41;;;9.39;64.04
33191;BME280;19554;42.652;23.364;2023-04-12T01:19:32;93687.28;;;9.37;64.14
33191;BME280;19554;42.652;23.364;2023-04-12T01:28:04;93684.91;;;9.36;64.07
33191;BME280;19554;42.652;23.364;2023-04-12T01:30:31;93685.50;;;9.33;64.09
33191;BME280;19554;42.652;23.364;2023-04-12T01:32:59;93685.50;;;9.33;64.10
33191;BME280;19554;42.652;23.364;2023-04-12T01:35:29;93686.28;;;9.33;64.11
33191;BME280;19554;42.652;23.364;2023-04-12T01:37:57;93672.94;;;9.24;63.93
33191;BME280;19554;42.652;23.364;2023-04-12T01:40:25;93624.38;;;8.83;64.27
33191;BME280;19554;42.652;23.364;2023-04-12T01:43:09;93687.34;;;9.23;64.40
33191;BME280;19554;42.652;23.364;2023-04-12T01:45:35;93679.44;;;9.18;64.51
33191;BME280;19554;42.652;23.364;2023-04-12T01:48:03;93680.25;;;9.19;64.41
33191;BME280;19554;42.652;23.364;2023-04-12T01:55:58;93685.03;;;9.31;64.47
33191;BME280;19554;42.652;23.364;2023-04-12T01:58:28;93664.69;;;9.12;64.33
33191;BME280;19554;42.652;23.364;2023-04-12T02:00:56;93680.56;;;9.17;64.59
33191;BME280;19554;42.652;23.364;2023-04-12T02:03:23;93674.72;;;9.15;64.79
33191;BME280;19554;42.652;23.364;2023-04-12T02:05:50;93669.91;;;9.17;64.64
33191;BME280;19554;42.652;23.364;2023-04-12T02:08:16;93580.88;;;8.51;64.84
33191;BME280;19554;42.652;23.364;2023-04-12T02:10:41;93647.00;;;8.94;64.74
33191;BME280;19554;42.652;23.364;2023-04-12T02:13:07;93675.91;;;9.09;65.09
33191;BME280;19554;42.652;23.364;2023-04-12T02:15:32;93665.91;;;9.06;64.98
33191;BME280;19554;42.652;23.364;2023-04-12T02:17:58;93667.84;;;9.14;64.85
33191;BME280;19554;42.652;23.364;2023-04-12T02:20:24;93680.06;;;9.15;64.76
33191;BME280;19554;42.652;23.364;2023-04-12T02:22:51;93671.00;;;9.16;64.56
33191;BME280;19554;42.652;23.364;2023-04-12T02:25:17;93650.91;;;9.10;64.55
33191;BME280;19554;42.652;23.364;2023-04-12T02:27:43;93644.22;;;8.99;64.47
33191;BME280;19554;42.652;23.364;2023-04-12T02:30:09;93669.53;;;9.10;64.70
33191;BME280;19554;42.652;23.364;2023-04-12T02:32:35;93674.16;;;9.05;64.94
33191;BME280;19554;42.652;23.364;2023-04-12T02:35:13;93656.50;;;8.86;65.26
33191;BME280;19554;42.652;23.364;2023-04-12T02:37:43;93650.97;;;8.83;65.38
33191;BME280;19554;42.652;23.364;2023-04-12T02:40:09;93664.53;;;8.95;65.42
33191;BME280;19554;42.652;23.364;2023-04-12T02:42:35;93662.38;;;8.97;65.39
33191;BME280;19554;42.652;23.364;2023-04-12T02:45:01;93663.94;;;8.98;65.26
33191;BME280;19554;42.652;23.364;2023-04-12T02:47:27;93669.75;;;9.00;65.39
33191;BME280;19554;42.652;23.364;2023-04-12T02:49:53;93617.88;;;8.75;65.14
33191;BME280;19554;42.652;23.364;2023-04-12T02:52:19;93664.31;;;9.05;65.09
33191;BME280;19554;42.652;23.364;2023-04-12T02:54:45;93572.44;;;8.49;65.04
33191;BME280;19554;42.652;23.364;2023-04-12T02:57:10;93648.56;;;8.95;64.84
33191;BME280;19554;42.652;23.364;2023-04-12T02:59:37;93600.94;;;8.71;64.85
33191;BME280;19554;42.652;23.364;2023-04-12T03:02:02;93646.41;;;8.97;64.85
33191;BME280;19554;42.652;23.364;2023-04-12T03:04:28;93656.22;;;9.10;64.91
33191;BME280;19554;42.652;23.364;2023-04-12T03:06:55;93640.28;;;8.96;64.56
33191;BME280;19554;42.652;23.364;2023-04-12T03:09:21;93656.22;;;9.10;64.76
33191;BME280;19554;42.652;23.364;2023-04-12T03:11:46;93627.28;;;8.95;64.66
33191;BME280;19554;42.652;23.364;2023-04-12T03:14:12;93655.63;;;9.13;64.78
33191;BME280;19554;42.652;23.364;2023-04-12T03:16:37;93661.31;;;9.20;64.81
33191;BME280;19554;42.652;23.364;2023-04-12T03:19:03;93666.13;;;9.18;65.05
33191;BME280;19554;42.652;23.364;2023-04-12T03:21:30;93646.19;;;9.07;65.37
33191;BME280;19554;42.652;23.364;2023-04-12T03:23:57;93621.00;;;8.91;65.60
33191;BME280;19554;42.652;23.364;2023-04-12T03:26:23;93596.22;;;8.68;66.29
33191;BME280;19554;42.652;23.364;2023-04-12T03:28:53;93641.56;;;8.99;66.22
33191;BME280;19554;42.652;23.364;2023-04-12T03:31:18;93666.28;;;9.13;66.95
33191;BME280;19554;42.652;23.364;2023-04-12T03:33:45;93665.69;;;9.16;67.03
33191;BME280;19554;42.652;23.364;2023-04-12T03:36:11;93667.09;;;9.22;66.94
33191;BME280;19554;42.652;23.364;2023-04-12T03:38:36;93665.53;;;9.21;66.97
33191;BME280;19554;42.652;23.364;2023-04-12T03:41:01;93590.31;;;8.71;67.62
33191;BME280;19554;42.652;23.364;2023-04-12T03:43:27;93671.59;;;9.13;67.81
33191;BME280;19554;42.652;23.364;2023-04-12T03:45:52;93681.88;;;9.06;68.06
33191;BME280;19554;42.652;23.364;2023-04-12T03:48:18;93663.53;;;9.05;68.03
33191;BME280;19554;42.652;23.364;2023-04-12T03:50:43;93675.28;;;9.04;67.83
33191;BME280;19554;42.652;23.364;2023-04-12T03:53:12;93676.41;;;9.11;67.66
33191;BME280;19554;42.652;23.364;2023-04-12T03:55:37;93679.22;;;9.06;67.26
33191;BME280;19554;42.652;23.364;2023-04-12T03:58:03;93680.09;;;9.01;67.04
33191;BME280;19554;42.652;23.364;2023-04-12T04:00:29;93677.94;;;9.04;67.19
33191;BME280;19554;42.652;23.364;2023-04-12T04:02:59;93556.41;;;8.26;66.81
33191;BME280;19554;42.652;23.364;2023-04-12T04:05:30;93680.88;;;9.02;66.95
33191;BME280;19554;42.652;23.364;2023-04-12T04:07:56;93691.53;;;9.02;66.92
33191;BME280;19554;42.652;23.364;2023-04-12T04:10:26;93683.25;;;9.04;66.76
33191;BME280;19554;42.652;23.364;2023-04-12T04:12:52;93676.56;;;9.06;66.96
33191;BME280;19554;42.652;23.364;2023-04-12T04:15:17;93676.06;;;9.04;66.67
33191;BME280;19554;42.652;23.364;2023-04-12T04:17:43;93680.25;;;9.19;66.32
33191;BME280;19554;42.652;23.364;2023-04-12T04:20:10;93664.31;;;9.05;66.37
33191;BME280;19554;42.652;23.364;2023-04-12T04:22:37;93701.34;;;9.15;66.15
33191;BME280;19554;42.652;23.364;2023-04-12T04:25:03;93714.59;;;9.07;66.16
33191;BME280;19554;42.652;23.364;2023-04-12T04:27:28;93706.31;;;9.08;66.56
33191;BME280;19554;42.652;23.364;2023-04-12T04:29:54;93716.19;;;8.94;67.06
33191;BME280;19554;42.652;23.364;2023-04-12T04:32:24;93672.59;;;8.53;67.02
33191;BME280;19554;42.652;23.364;2023-04-12T04:34:49;93722.09;;;8.91;67.22
33191;BME280;19554;42.652;23.364;2023-04-12T04:37:15;93721.91;;;8.87;67.33
33191;BME280;19554;42.652;23.364;2023-04-12T04:39:43;93727.44;;;8.91;67.38
33191;BME280;19554;42.652;23.364;2023-04-12T04:42:08;93731.78;;;8.87;67.29
33191;BME280;19554;42.652;23.364;2023-04-12T04:44:33;93729.41;;;8.85;67.39
33191;BME280;19554;42.652;23.364;2023-04-12T04:47:00;93739.25;;;8.98;67.09
33191;BME280;19554;42.652;23.364;2023-04-12T04:49:25;93737.88;;;9.01;66.73
33191;BME280;19554;42.652;23.364;2023-04-12T04:51:50;93736.69;;;9.07;66.56
33191;BME280;19554;42.652;23.364;2023-04-12T04:54:16;93735.09;;;9.06;66.26
33191;BME280;19554;42.652;23.364;2023-04-12T04:56:42;93728.53;;;8.90;66.50
33191;BME280;19554;42.652;23.364;2023-04-12T04:59:07;93744.16;;;9.05;66.23
33191;BME280;19554;42.652;23.364;2023-04-12T05:01:32;93746.34;;;9.03;65.79
33191;BME280;19554;42.652;23.364;2023-04-12T05:04:00;93749.47;;;9.05;66.00
33191;BME280;19554;42.652;23.364;2023-04-12T05:06:26;93750.47;;;9.09;65.84
33191;BME280;19554;42.652;23.364;2023-04-12T05:08:52;93748.69;;;9.05;65.26
33191;BME280;19554;42.652;23.364;2023-04-12T05:11:18;93753.84;;;9.01;64.80
33191;BME280;19554;42.652;23.364;2023-04-12T05:13:43;93696.13;;;8.60;64.69
33191;BME280;19554;42.652;23.364;2023-04-12T05:16:09;93756.78;;;9.13;64.56
33191;BME280;19554;42.652;23.364;2023-04-12T05:18:35;93754.03;;;9.05;64.32
33191;BME280;19554;42.652;23.364;2023-04-12T05:21:02;93764.47;;;9.01;64.23
33191;BME280;19554;42.652;23.364;2023-04-12T05:23:41;93768.31;;;8.95;63.95
33191;BME280;19554;42.652;23.364;2023-04-12T05:26:07;93768.31;;;8.95;64.09
33191;BME280;19554;42.652;23.364;2023-04-12T05:28:32;93749.44;;;8.83;64.14
33191;BME280;19554;42.652;23.364;2023-04-12T05:30:58;93767.06;;;9.06;63.38
33191;BME280;19554;42.652;23.364;2023-04-12T05:33:23;93735.03;;;8.84;62.69
33191;BME280;19554;42.652;23.364;2023-04-12T05:35:49;93771.75;;;9.09;62.34
33191;BME280;19554;42.652;23.364;2023-04-12T05:38:14;93761.50;;;9.16;61.94
33191;BME280;19554;42.652;23.364;2023-04-12T05:40:40;93759.63;;;9.17;61.24
33191;BME280;19554;42.652;23.364;2023-04-12T05:43:08;93769.38;;;9.21;60.93
33191;BME280;19554;42.652;23.364;2023-04-12T05:45:36;93769.28;;;9.27;60.71
33191;BME280;19554;42.652;23.364;2023-04-12T05:48:02;93777.66;;;9.34;60.41
33191;BME280;19554;42.652;23.364;2023-04-12T05:50:27;93772.78;;;9.36;59.71
33191;BME280;19554;42.652;23.364;2023-04-12T05:52:53;93693.44;;;8.88;59.31
33191;BME280;19554;42.652;23.364;2023-04-12T05:55:19;93766.22;;;9.19;58.66
33191;BME280;19554;42.652;23.364;2023-04-12T05:57:45;93771.97;;;9.13;59.07
33191;BME280;19554;42.652;23.364;2023-04-12T06:00:12;93782.53;;;9.04;59.13
33191;BME280;19554;42.652;23.364;2023-04-12T06:02:39;93768.13;;;9.05;58.67
33191;BME280;19554;42.652;23.364;2023-04-12T06:05:05;93784.97;;;9.14;58.76
33191;BME280;19554;42.652;23.364;2023-04-12T06:07:30;93789.91;;;9.07;58.53
33191;BME280;19554;42.652;23.364;2023-04-12T06:09:56;93795.31;;;9.02;58.38
33191;BME280;19554;42.652;23.364;2023-04-12T06:12:21;93782.53;;;9.04;58.23
33191;BME280;19554;42.652;23.364;2023-04-12T06:14:46;93769.13;;;8.82;58.44
33191;BME280;19554;42.652;23.364;2023-04-12T06:17:12;93790.31;;;8.87;58.90
33191;BME280;19554;42.652;23.364;2023-04-12T06:19:37;93794.28;;;8.75;59.03
33191;BME280;19554;42.652;23.364;2023-04-12T06:22:03;93810.03;;;8.86;59.12
33191;BME280;19554;42.652;23.364;2023-04-12T06:24:28;93816.34;;;8.90;59.36
33191;BME280;19554;42.652;23.364;2023-04-12T06:26:53;93815.16;;;8.96;59.58
33191;BME280;19554;42.652;23.364;2023-04-12T06:29:19;93807.66;;;8.98;59.88
33191;BME280;19554;42.652;23.364;2023-04-12T06:31:44;93799.59;;;8.89;60.85
33191;BME280;19554;42.652;23.364;2023-04-12T06:34:10;93810.91;;;8.95;60.76
33191;BME280;19554;42.652;23.364;2023-04-12T06:36:35;93809.84;;;8.96;61.50
33191;BME280;19554;42.652;23.364;2023-04-12T06:39:01;93738.81;;;8.55;61.70
33191;BME280;19554;42.652;23.364;2023-04-12T06:41:27;93771.59;;;8.78;61.88
33191;BME280;19554;42.652;23.364;2023-04-12T06:43:52;93808.63;;;9.02;61.03
33191;BME280;19554;42.652;23.364;2023-04-12T06:46:25;93784.78;;;8.97;60.68
33191;BME280;19554;42.652;23.364;2023-04-12T06:48:51;93801.31;;;9.21;60.45
33191;BME280;19554;42.652;23.364;2023-04-12T06:51:16;93804.31;;;9.20;59.79
33191;BME280;19554;42.652;23.364;2023-04-12T06:53:41;93799.63;;;9.25;59.04
33191;BME280;19554;42.652;23.364;2023-04-12T06:56:07;93790.28;;;9.14;58.89
33191;BME280;19554;42.652;23.364;2023-04-12T06:58:32;93790.88;;;9.11;59.22
33191;BME280;19554;42.652;23.364;2023-04-12T07:01:05;93783.88;;;9.15;58.80
33191;BME280;19554;42.652;23.364;2023-04-12T07:03:30;93790.09;;;9.11;59.07
33191;BME280;19554;42.652;23.364;2023-04-12T07:05:57;93783.88;;;9.15;58.76
33191;BME280;19554;42.652;23.364;2023-04-12T07:08:24;93773.97;;;9.30;58.79
33191;BME280;19554;42.652;23.364;2023-04-12T07:10:55;93788.56;;;9.46;58.12
33191;BME280;19554;42.652;23.364;2023-04-12T07:13:21;93780.03;;;9.80;58.12
33191;BME280;19554;42.652;23.364;2023-04-12T07:15:48;93789.34;;;10.05;56.54
33191;BME280;19554;42.652;23.364;2023-04-12T07:18:13;93779.34;;;10.42;55.45
33191;BME280;19554;42.652;23.364;2023-04-12T07:20:38;93770.34;;;10.60;54.55
33191;BME280;19554;42.652;23.364;2023-04-12T07:23:04;93774.81;;;10.82;53.60
33191;BME280;19554;42.652;23.364;2023-04-12T07:25:29;93776.50;;;11.18;53.44
33191;BME280;19554;42.652;23.364;2023-04-12T07:27:55;93776.84;;;11.34;52.31
33191;BME280;19554;42.652;23.364;2023-04-12T07:30:20;93761.28;;;11.45;51.93
33191;BME280;19554;42.652;23.364;2023-04-12T07:32:46;93763.97;;;11.53;51.65
33191;BME280;19554;42.652;23.364;2023-04-12T07:35:11;93756.41;;;11.38;51.62
33191;BME280;19554;42.652;23.364;2023-04-12T07:37:36;93663.03;;;10.81;51.90
33191;BME280;19554;42.652;23.364;2023-04-12T07:40:02;93755.94;;;11.36;51.55
33191;BME280;19554;42.652;23.364;2023-04-12T07:42:28;93730.25;;;11.00;51.57
33191;BME280;19554;42.652;23.364;2023-04-12T07:44:53;93778.09;;;11.45;51.13
33191;BME280;19554;42.652;23.364;2023-04-12T07:47:18;93764.59;;;11.50;51.34
33191;BME280;19554;42.652;23.364;2023-04-12T07:49:44;93770.25;;;11.57;50.60
33191;BME280;19554;42.652;23.364;2023-04-12T07:52:09;93670.53;;;10.61;50.99
33191;BME280;19554;42.652;23.364;2023-04-12T07:54:36;93754.19;;;11.23;51.52
33191;BME280;19554;42.652;23.364;2023-04-12T07:57:02;93757.38;;;11.59;51.02
33191;BME280;19554;42.652;23.364;2023-04-12T07:59:28;93753.63;;;11.87;49.92
33191;BME280;19554;42.652;23.364;2023-04-12T08:01:54;93749.19;;;11.73;48.85
33191;BME280;19554;42.652;23.364;2023-04-12T08:04:19;93753.13;;;11.67;46.69
33191;BME280;19554;42.652;23.364;2023-04-12T08:06:45;93761.44;;;11.66;46.53
33191;BME280;19554;42.652;23.364;2023-04-12T08:09:10;93748.41;;;11.64;45.05
33191;BME280;19554;42.652;23.364;2023-04-12T08:11:36;93739.63;;;11.46;46.01
33191;BME280;19554;42.652;23.364;2023-04-12T08:14:01;93730.97;;;11.32;46.32
33191;BME280;19554;42.652;23.364;2023-04-12T08:16:26;93728.09;;;11.20;46.89
33191;BME280;19554;42.652;23.364;2023-04-12T08:18:52;93742.25;;;11.11;47.53
33191;BME280;19554;42.652;23.364;2023-04-12T08:21:17;93750.56;;;11.10;46.95
33191;BME280;19554;42.652;23.364;2023-04-12T08:23:43;93737.50;;;10.91;46.40
33191;BME280;19554;42.652;23.364;2023-04-12T08:26:08;93754.34;;;11.09;46.25
33191;BME280;19554;42.652;23.364;2023-04-12T08:28:34;93715.72;;;10.66;46.06
33191;BME280;19554;42.652;23.364;2023-04-12T08:30:59;93716.13;;;10.91;44.88
33191;BME280;19554;42.652;23.364;2023-04-12T08:33:25;93755.47;;;11.51;43.80
33191;BME280;19554;42.652;23.364;2023-04-12T08:35:51;93756.59;;;11.76;42.38
33191;BME280;19554;42.652;23.364;2023-04-12T08:38:17;93729.38;;;11.66;42.10
33191;BME280;19554;42.652;23.364;2023-04-12T08:40:42;93743.84;;;11.82;42.03
33191;BME280;19554;42.652;23.364;2023-04-12T08:43:10;93690.38;;;11.65;41.79
33191;BME280;19554;42.652;23.364;2023-04-12T08:45:36;93716.47;;;12.02;41.88
33191;BME280;19554;42.652;23.364;2023-04-12T08:48:03;93737.88;;;12.02;41.80
33191;BME280;19554;42.652;23.364;2023-04-12T08:50:29;93741.66;;;12.01;41.62
33191;BME280;19554;42.652;23.364;2023-04-12T08:52:57;93659.59;;;11.41;40.86
33191;BME280;19554;42.652;23.364;2023-04-12T08:55:23;93743.50;;;12.09;40.26
33191;BME280;19554;42.652;23.364;2023-04-12T08:57:49;93736.72;;;12.29;39.91
33191;BME280;19554;42.652;23.364;2023-04-12T09:00:16;93733.03;;;12.51;40.22
33191;BME280;19554;42.652;23.364;2023-04-12T09:02:42;93728.06;;;12.24;40.01
33191;BME280;19554;42.652;23.364;2023-04-12T09:05:10;93655.94;;;11.72;40.08
33191;BME280;19554;42.652;23.364;2023-04-12T09:07:36;93714.75;;;11.98;40.15
33191;BME280;19554;42.652;23.364;2023-04-12T09:10:02;93634.28;;;11.56;41.13
33191;BME280;19554;42.652;23.364;2023-04-12T09:12:28;93722.69;;;12.24;41.07
33191;BME280;19554;42.652;23.364;2023-04-12T09:15:14;93715.09;;;12.43;39.87
33191;BME280;19554;42.652;23.364;2023-04-12T09:17:41;93720.09;;;12.53;39.56
33191;BME280;19554;42.652;23.364;2023-04-12T09:22:42;93723.94;;;12.73;39.31
33191;BME280;19554;42.652;23.364;2023-04-12T09:25:10;93710.97;;;12.84;37.90
33191;BME280;19554;42.652;23.364;2023-04-12T09:27:49;93717.19;;;12.67;36.11
33191;BME280;19554;42.652;23.364;2023-04-12T09:30:16;93712.31;;;12.69;36.75
33191;BME280;19554;42.652;23.364;2023-04-12T09:32:42;93714.03;;;12.74;36.64
33191;BME280;19554;42.652;23.364;2023-04-12T09:35:08;93614.25;;;12.26;36.95
33191;BME280;19554;42.652;23.364;2023-04-12T09:37:33;93666.69;;;12.57;36.97
33191;BME280;19554;42.652;23.364;2023-04-12T09:40:06;93705.34;;;12.77;37.19
33191;BME280;19554;42.652;23.364;2023-04-12T09:42:32;93706.53;;;12.88;36.22
33191;BME280;19554;42.652;23.364;2023-04-12T09:45:00;93695.41;;;13.07;35.47
33191;BME280;19554;42.652;23.364;2023-04-12T09:47:37;93695.16;;;13.21;35.12
33191;BME280;19554;42.652;23.364;2023-04-12T09:50:06;93683.94;;;13.48;33.94
33191;BME280;19554;42.652;23.364;2023-04-12T09:52:38;93667.66;;;13.54;33.71
33191;BME280;19554;42.652;23.364;2023-04-12T09:55:09;93665.25;;;13.40;33.42
33191;BME280;19554;42.652;23.364;2023-04-12T09:57:40;93659.47;;;13.50;34.01
33191;BME280;19554;42.652;23.364;2023-04-12T10:00:06;93667.25;;;13.64;34.74
33191;BME280;19554;42.652;23.364;2023-04-12T10:02:42;93659.19;;;13.64;35.60
33191;BME280;19554;42.652;23.364;2023-04-12T10:05:12;93655.38;;;13.86;35.52
33191;BME280;19554;42.652;23.364;2023-04-12T10:07:39;93576.22;;;13.34;34.81
33191;BME280;19554;42.652;23.364;2023-04-12T10:10:07;93660.63;;;13.82;33.65
33191;BME280;19554;42.652;23.364;2023-04-12T10:12:35;93640.72;;;13.71;31.60
33191;BME280;19554;42.652;23.364;2023-04-12T10:15:05;93650.88;;;13.44;30.85
33191;BME280;19554;42.652;23.364;2023-04-12T10:17:42;93649.78;;;13.16;28.92
33191;BME280;19554;42.652;23.364;2023-04-12T10:20:10;93561.63;;;12.69;29.09
33191;BME280;19554;42.652;23.364;2023-04-12T10:22:38;93631.00;;;13.45;28.67
33191;BME280;19554;42.652;23.364;2023-04-12T10:25:09;93624.03;;;13.65;29.16
33191;BME280;19554;42.652;23.364;2023-04-12T10:27:35;93565.38;;;13.31;28.21
33191;BME280;19554;42.652;23.364;2023-04-12T10:30:29;93639.75;;;13.55;29.11
33191;BME280;19554;42.652;23.364;2023-04-12T10:35:26;93648.09;;;12.90;29.39
33191;BME280;19554;42.652;23.364;2023-04-12T10:38:02;93636.19;;;12.79;30.32
33191;BME280;19554;42.652;23.364;2023-04-12T10:40:29;93639.06;;;12.74;30.21
33191;BME280;19554;42.652;23.364;2023-04-12T10:43:28;93625.03;;;12.77;30.49
33191;BME280;19554;42.652;23.364;2023-04-12T10:45:54;93561.16;;;12.37;29.59
33191;BME280;19554;42.652;23.364;2023-04-12T10:48:39;93608.47;;;12.75;29.26
33191;BME280;19554;42.652;23.364;2023-04-12T10:51:19;93615.69;;;12.83;29.04
33191;BME280;19554;42.652;23.364;2023-04-12T10:56:40;93627.56;;;13.24;28.24
33191;BME280;19554;42.652;23.364;2023-04-12T10:59:13;93627.31;;;13.08;26.33
33191;BME280;19554;42.652;23.364;2023-04-12T11:01:39;93600.88;;;13.07;27.06
33191;BME280;19554;42.652;23.364;2023-04-12T11:04:19;93577.81;;;12.93;27.51
33191;BME280;19554;42.652;23.364;2023-04-12T11:11:42;93596.78;;;13.30;26.98
33191;BME280;19554;42.652;23.364;2023-04-12T11:14:13;93603.72;;;13.43;25.85
33191;BME280;19554;42.652;23.364;2023-04-12T11:19:22;93607.94;;;13.32;25.84
33191;BME280;19554;42.652;23.364;2023-04-12T11:21:50;93598.06;;;13.24;26.06
33191;BME280;19554;42.652;23.364;2023-04-12T11:24:15;93611.91;;;13.26;27.05
33191;BME280;19554;42.652;23.364;2023-04-12T11:26:41;93592.31;;;13.34;27.14
33191;BME280;19554;42.652;23.364;2023-04-12T11:29:07;93605.25;;;13.32;27.12
33191;BME280;19554;42.652;23.364;2023-04-12T11:31:32;93603.03;;;13.34;27.24
33191;BME280;19554;42.652;23.364;2023-04-12T11:33:58;93614.03;;;13.54;27.43
33191;BME280;19554;42.652;23.364;2023-04-12T11:36:24;93599.72;;;13.49;26.87
33191;BME280;19554;42.652;23.364;2023-04-12T11:38:50;93574.91;;;13.40;27.40
33191;BME280;19554;42.652;23.364;2023-04-12T11:41:17;93590.19;;;13.61;27.31
33191;BME280;19554;42.652;23.364;2023-04-12T11:43:42;93608.75;;;13.78;27.30
33191;BME280;19554;42.652;23.364;2023-04-12T11:46:08;93549.88;;;13.36;26.54
33191;BME280;19554;42.652;23.364;2023-04-12T11:48:34;93589.75;;;13.71;26.51
33191;BME280;19554;42.652;23.364;2023-04-12T11:51:18;93562.19;;;13.37;26.06
33191;BME280;19554;42.652;23.364;2023-04-12T11:53:44;93598.66;;;13.63;26.37
33191;BME280;19554;42.652;23.364;2023-04-12T11:56:09;93568.84;;;13.31;26.61
33191;BME280;19554;42.652;23.364;2023-04-12T11:58:35;93582.00;;;13.24;26.88
33191;BME280;19554;42.652;23.364;2023-04-12T12:01:00;93586.94;;;13.34;27.21
33191;BME280;19554;42.652;23.364;2023-04-12T12:03:26;93605.22;;;13.53;27.36
33191;BME280;19554;42.652;23.364;2023-04-12T12:05:52;93590.59;;;13.50;27.22
33191;BME280;19554;42.652;23.364;2023-04-12T12:08:18;93599.03;;;13.40;27.63
33191;BME280;19554;42.652;23.364;2023-04-12T12:10:43;93581.38;;;13.39;28.05
33191;BME280;19554;42.652;23.364;2023-04-12T12:13:13;93564.03;;;13.24;27.59
33191;BME280;19554;42.652;23.364;2023-04-12T12:15:42;93587.34;;;13.24;28.04
33191;BME280;19554;42.652;23.364;2023-04-12T12:18:09;93589.69;;;13.04;27.42
33191;BME280;19554;42.652;23.364;2023-04-12T12:20:48;93575.13;;;12.93;28.25
33191;BME280;19554;42.652;23.364;2023-04-12T12:23:34;93584.47;;;13.29;28.25
33191;BME280;19554;42.652;23.364;2023-04-12T12:26:01;93584.75;;;13.48;28.27
33191;BME280;19554;42.652;23.364;2023-04-12T12:28:28;93504.88;;;13.09;27.80
33191;BME280;19554;42.652;23.364;2023-04-12T12:30:54;93594.19;;;13.67;27.88
33191;BME280;19554;42.652;23.364;2023-04-12T12:33:21;93587.94;;;13.63;27.82
33191;BME280;19554;42.652;23.364;2023-04-12T12:35:56;93598.00;;;13.66;27.99
33191;BME280;19554;42.652;23.364;2023-04-12T12:38:22;93577.06;;;13.47;27.84
33191;BME280;19554;42.652;23.364;2023-04-12T12:40:48;93599.31;;;13.60;27.63
33191;BME280;19554;42.652;23.364;2023-04-12T12:43:19;93593.72;;;13.52;27.56
33191;BME280;19554;42.652;23.364;2023-04-12T12:45:45;93582.97;;;13.40;27.80
33191;BME280;19554;42.652;23.364;2023-04-12T12:48:11;93604.56;;;13.56;28.43
33191;BME280;19554;42.652;23.364;2023-04-12T12:50:37;93599.31;;;13.60;28.21
33191;BME280;19554;42.652;23.364;2023-04-12T12:53:03;93598.16;;;13.48;27.09
33191;BME280;19554;42.652;23.364;2023-04-12T12:55:32;93601.03;;;13.43;26.70
33191;BME280;19554;42.652;23.364;2023-04-12T12:57:58;93578.44;;;13.32;27.11
33191;BME280;19554;42.652;23.364;2023-04-12T13:00:27;93607.50;;;13.30;27.30
33191;BME280;19554;42.652;23.364;2023-04-12T13:02:52;93592.72;;;13.24;27.55
33191;BME280;19554;42.652;23.364;2023-04-12T13:05:18;93593.94;;;13.05;27.03
33191;BME280;19554;42.652;23.364;2023-04-12T13:07:44;93608.16;;;13.27;27.29
33191;BME280;19554;42.652;23.364;2023-04-12T13:10:10;93588.50;;;13.35;27.70
33191;BME280;19554;42.652;23.364;2023-04-12T13:12:36;93589.16;;;13.32;27.47
33191;BME280;19554;42.652;23.364;2023-04-12T13:15:02;93555.59;;;13.14;27.93
33191;BME280;19554;42.652;23.364;2023-04-12T13:17:29;93594.41;;;13.28;27.97
33191;BME280;19554;42.652;23.364;2023-04-12T13:19:55;93589.28;;;13.36;28.11
33191;BME280;19554;42.652;23.364;2023-04-12T13:22:20;93605.38;;;13.36;27.84
33191;BME280;19554;42.652;23.364;2023-04-12T13:24:46;93525.44;;;12.84;27.85
33191;BME280;19554;42.652;23.364;2023-04-12T13:27:12;93598.81;;;13.45;27.29
33191;BME280;19554;42.652;23.364;2023-04-12T13:29:38;93590.31;;;13.43;27.65